createdAt,value
2022-08-25T00:01:54.377Z,56.81
2022-08-25T00:04:24.528Z,57.33
2022-08-25T00:06:59.336Z,57.31
2022-08-25T00:09:29.387Z,56.90
2022-08-25T00:11:57.418Z,57.70
2022-08-25T00:14:33.587Z,57.84
2022-08-25T00:17:03.419Z,57.57
2022-08-25T00:22:19.831Z,58.05
2022-08-25T00:24:47.790Z,58.19
2022-08-25T00:27:15.793Z,57.87
2022-08-25T00:29:43.741Z,58.05
2022-08-25T00:32:13.346Z,58.49
2022-08-25T00:34:41.314Z,58.38
2022-08-25T00:37:10.451Z,58.57
2022-08-25T00:39:39.670Z,58.68
2022-08-25T00:42:15.897Z,58.38
2022-08-25T00:44:45.105Z,58.83
2022-08-25T00:47:14.726Z,58.38
2022-08-25T00:49:46.053Z,58.52
2022-08-25T00:52:17.483Z,58.29
2022-08-25T00:54:51.230Z,58.75
2022-08-25T00:57:34.874Z,58.82
2022-08-25T01:00:08.073Z,58.60
2022-08-25T01:02:37.968Z,58.22
2022-08-25T01:05:07.157Z,58.47
2022-08-25T01:07:35.249Z,58.98
2022-08-25T01:10:03.625Z,59.02
2022-08-25T01:12:31.744Z,58.81
2022-08-25T01:14:59.937Z,59.03
2022-08-25T01:17:35.098Z,59.63
2022-08-25T01:20:05.691Z,59.41
2022-08-25T01:22:35.160Z,59.40
2022-08-25T01:25:06.968Z,59.43
2022-08-25T01:27:34.930Z,59.32
2022-08-25T01:30:02.919Z,59.42
2022-08-25T01:32:34.976Z,59.60
2022-08-25T01:35:03.033Z,59.66
2022-08-25T01:37:30.988Z,60.02
2022-08-25T01:40:00.381Z,60.57
2022-08-25T01:42:43.501Z,60.58
2022-08-25T01:45:11.547Z,60.14
2022-08-25T01:47:39.883Z,59.88
2022-08-25T01:50:08.954Z,59.93
2022-08-25T01:52:51.054Z,60.68
2022-08-25T01:55:20.557Z,60.85
2022-08-25T01:57:48.609Z,60.88
2022-08-25T02:00:18.654Z,61.54
2022-08-25T02:02:47.293Z,61.38
2022-08-25T02:05:23.574Z,61.03
2022-08-25T02:07:51.943Z,60.85
2022-08-25T02:10:22.545Z,60.80
2022-08-25T02:12:51.745Z,60.89
2022-08-25T02:15:22.539Z,61.08
2022-08-25T02:17:50.552Z,61.05
2022-08-25T02:20:19.080Z,60.95
2022-08-25T02:22:56.751Z,61.02
2022-08-25T02:25:26.576Z,61.10
2022-08-25T02:27:54.663Z,61.13
2022-08-25T02:30:22.742Z,60.94
2022-08-25T02:35:19.547Z,61.08
2022-08-25T02:37:47.581Z,61.03
2022-08-25T02:40:15.560Z,60.73
2022-08-25T02:42:45.378Z,60.59
2022-08-25T02:45:14.040Z,60.46
2022-08-25T02:47:42.049Z,60.63
2022-08-25T02:50:11.061Z,60.76
2022-08-25T02:52:39.948Z,60.85
2022-08-25T02:55:12.855Z,60.89
2022-08-25T02:57:42.029Z,60.98
2022-08-25T03:00:14.612Z,61.01
2022-08-25T03:02:43.250Z,60.89
2022-08-25T03:05:12.907Z,60.95
2022-08-25T03:07:41.486Z,60.83
2022-08-25T03:10:13.394Z,61.18
2022-08-25T03:12:42.473Z,61.19
2022-08-25T03:15:15.426Z,61.04
2022-08-25T03:17:45.444Z,60.99
2022-08-25T03:20:15.419Z,61.04
2022-08-25T03:22:43.794Z,61.11
2022-08-25T03:25:29.941Z,61.01
2022-08-25T03:27:58.276Z,61.17
2022-08-25T03:30:28.445Z,61.13
2022-08-25T03:32:56.554Z,61.39
2022-08-25T03:35:24.702Z,61.61
2022-08-25T03:37:56.718Z,61.67
2022-08-25T03:40:25.022Z,61.85
2022-08-25T03:42:53.069Z,61.90
2022-08-25T03:45:21.157Z,61.85
2022-08-25T03:47:52.046Z,61.78
2022-08-25T03:50:22.042Z,61.75
2022-08-25T03:52:53.808Z,61.75
2022-08-25T03:55:24.041Z,61.86
2022-08-25T03:57:52.107Z,62.14
2022-08-25T04:00:20.825Z,62.35
2022-08-25T04:02:50.593Z,62.31
2022-08-25T04:05:20.308Z,62.49
2022-08-25T04:07:48.274Z,62.71
2022-08-25T04:10:17.636Z,62.54
2022-08-25T04:12:45.582Z,62.47
2022-08-25T04:15:13.625Z,62.20
2022-08-25T04:17:42.290Z,62.38
2022-08-25T04:20:14.287Z,62.47
2022-08-25T04:22:44.933Z,62.57
2022-08-25T04:25:13.561Z,62.37
2022-08-25T04:27:42.151Z,62.50
2022-08-25T04:30:11.470Z,62.63
2022-08-25T04:32:39.464Z,62.52
2022-08-25T04:35:08.773Z,62.31
2022-08-25T04:37:38.180Z,62.48
2022-08-25T04:40:06.852Z,62.44
2022-08-25T04:42:35.347Z,62.08
2022-08-25T04:45:04.346Z,62.34
2022-08-25T04:47:32.377Z,62.64
2022-08-25T04:50:00.428Z,63.60
2022-08-25T04:52:28.479Z,64.66
2022-08-25T04:54:57.806Z,64.85
2022-08-25T04:57:25.743Z,64.99
2022-08-25T04:59:54.234Z,65.19
2022-08-25T05:02:22.465Z,64.85
2022-08-25T05:04:50.446Z,64.64
2022-08-25T05:07:18.428Z,64.13
2022-08-25T05:09:46.443Z,64.06
2022-08-25T05:12:15.759Z,63.94
2022-08-25T05:14:43.938Z,63.73
2022-08-25T05:17:11.953Z,63.40
2022-08-25T05:19:39.934Z,63.47
2022-08-25T05:22:07.897Z,63.64
2022-08-25T05:24:35.895Z,63.55
2022-08-25T05:27:04.107Z,63.66
2022-08-25T05:29:33.496Z,63.68
2022-08-25T05:32:01.538Z,63.71
2022-08-25T05:34:30.254Z,63.92
2022-08-25T05:37:00.202Z,64.03
2022-08-25T05:39:32.338Z,64.25
2022-08-25T05:42:00.303Z,64.12
2022-08-25T05:44:28.568Z,64.56
2022-08-25T05:46:57.986Z,64.64
2022-08-25T05:49:26.018Z,65.00
2022-08-25T05:51:54.025Z,64.85
2022-08-25T05:54:21.992Z,65.21
2022-08-25T05:56:50.191Z,65.22
2022-08-25T05:59:18.501Z,65.16
2022-08-25T06:02:03.762Z,65.26
2022-08-25T06:04:33.629Z,65.46
2022-08-25T06:07:01.666Z,65.50
2022-08-25T06:09:29.675Z,65.37
2022-08-25T06:11:57.781Z,65.54
2022-08-25T06:14:27.450Z,65.59
2022-08-25T06:16:55.468Z,66.14
2022-08-25T06:19:23.910Z,66.44
2022-08-25T06:21:56.512Z,66.27
2022-08-25T06:24:26.026Z,65.79
2022-08-25T06:26:54.481Z,65.87
2022-08-25T06:29:22.693Z,66.08
2022-08-25T06:31:50.979Z,66.18
2022-08-25T06:34:19.655Z,65.62
2022-08-25T06:36:51.807Z,65.27
2022-08-25T06:39:21.622Z,64.89
2022-08-25T06:41:52.939Z,65.26
2022-08-25T06:44:21.040Z,65.23
2022-08-25T06:46:49.214Z,64.96
2022-08-25T06:49:17.252Z,64.94
2022-08-25T06:51:45.916Z,64.17
2022-08-25T06:54:14.100Z,64.41
2022-08-25T06:56:43.762Z,64.60
2022-08-25T06:59:12.159Z,64.10
2022-08-25T07:01:40.424Z,64.31
2022-08-25T07:04:13.169Z,64.50
2022-08-25T07:06:41.888Z,64.30
2022-08-25T07:09:10.862Z,63.49
2022-08-25T07:11:39.437Z,63.58
2022-08-25T07:14:10.980Z,63.05
2022-08-25T07:16:40.513Z,62.67
2022-08-25T07:19:09.664Z,62.68
2022-08-25T07:21:45.889Z,62.47
2022-08-25T07:24:15.195Z,62.20
2022-08-25T07:26:43.987Z,61.80
2022-08-25T07:29:16.347Z,61.04
2022-08-25T07:31:46.012Z,61.08
2022-08-25T07:34:31.728Z,60.83
2022-08-25T07:37:00.204Z,60.26
2022-08-25T07:39:29.145Z,59.88
2022-08-25T07:41:57.275Z,59.55
2022-08-25T07:44:28.048Z,59.51
2022-08-25T07:46:57.334Z,59.86
2022-08-25T07:49:35.943Z,60.21
2022-08-25T07:52:07.838Z,59.14
2022-08-25T07:54:38.442Z,59.04
2022-08-25T07:57:08.744Z,58.74
2022-08-25T07:59:41.192Z,58.75
2022-08-25T08:02:16.030Z,58.83
2022-08-25T08:04:49.381Z,59.53
2022-08-25T08:07:19.700Z,58.36
2022-08-25T08:09:55.812Z,58.13
2022-08-25T08:12:24.520Z,57.89
2022-08-25T08:14:54.376Z,57.56
2022-08-25T08:17:22.736Z,57.49
2022-08-25T08:19:50.817Z,57.01
2022-08-25T08:22:19.561Z,57.18
2022-08-25T08:24:54.181Z,55.88
2022-08-25T08:27:23.041Z,55.63
2022-08-25T08:29:51.155Z,55.31
2022-08-25T08:32:20.832Z,55.46
2022-08-25T08:34:53.582Z,55.32
2022-08-25T08:37:22.879Z,55.32
2022-08-25T08:39:52.647Z,54.88
2022-08-25T08:42:39.721Z,55.86
2022-08-25T08:45:18.449Z,55.51
2022-08-25T08:48:00.201Z,54.11
2022-08-25T08:50:35.753Z,54.45
2022-08-25T08:53:10.286Z,53.94
2022-08-25T08:55:41.429Z,53.36
2022-08-25T08:58:12.950Z,53.32
2022-08-25T09:00:52.405Z,52.85
2022-08-25T09:03:32.904Z,51.78
2022-08-25T09:06:04.598Z,52.13
2022-08-25T09:08:35.263Z,52.18
2022-08-25T09:11:11.290Z,52.21
2022-08-25T09:14:04.472Z,51.30
2022-08-25T09:16:58.163Z,51.29
2022-08-25T09:19:59.852Z,51.17
2022-08-25T09:22:41.009Z,51.31
2022-08-25T09:25:22.003Z,51.13
2022-08-25T09:28:06.264Z,51.65
2022-08-25T09:30:45.290Z,51.22
2022-08-25T09:33:21.094Z,51.16
2022-08-25T09:35:53.673Z,50.90
2022-08-25T09:38:22.433Z,50.72
2022-08-25T09:40:53.403Z,50.78
2022-08-25T09:43:30.246Z,50.55
2022-08-25T09:46:02.385Z,50.35
2022-08-25T09:48:39.775Z,50.53
2022-08-25T09:51:19.797Z,49.37
2022-08-25T09:53:53.568Z,49.42
2022-08-25T09:56:24.009Z,49.80
2022-08-25T09:58:58.199Z,49.45
2022-08-25T10:01:34.820Z,48.94
2022-08-25T10:04:04.951Z,48.67
2022-08-25T10:06:44.120Z,48.25
2022-08-25T10:09:26.684Z,48.19
2022-08-25T10:11:57.739Z,48.45
2022-08-25T10:14:35.057Z,47.71
2022-08-25T10:17:27.625Z,47.52
2022-08-25T10:20:17.257Z,46.40
2022-08-25T10:22:48.274Z,46.71
2022-08-25T10:25:26.705Z,47.40
2022-08-25T10:28:05.925Z,46.57
2022-08-25T10:30:53.586Z,45.31
2022-08-25T10:33:34.405Z,45.44
2022-08-25T10:36:13.216Z,45.08
2022-08-25T10:38:45.381Z,45.39
2022-08-25T10:41:27.935Z,45.66
2022-08-25T10:44:05.015Z,45.71
2022-08-25T10:46:41.466Z,45.10
2022-08-25T10:49:19.631Z,45.09
2022-08-25T10:51:59.154Z,45.22
2022-08-25T10:54:47.771Z,45.37
2022-08-25T10:57:23.769Z,44.10
2022-08-25T11:00:05.912Z,44.29
2022-08-25T11:03:01.290Z,44.57
2022-08-25T11:05:33.082Z,44.28
2022-08-25T11:08:09.659Z,43.95
2022-08-25T11:10:46.080Z,44.31
2022-08-25T11:13:26.881Z,43.45
2022-08-25T11:16:16.683Z,43.29
2022-08-25T11:18:56.571Z,42.32
2022-08-25T11:21:32.818Z,42.46
2022-08-25T11:24:11.916Z,42.93
2022-08-25T11:26:55.052Z,41.43
2022-08-25T11:29:26.610Z,41.77
2022-08-25T11:31:55.456Z,41.56
2022-08-25T11:34:24.686Z,41.96
2022-08-25T11:36:56.095Z,41.17
2022-08-25T11:39:41.102Z,41.55
2022-08-25T11:42:27.142Z,41.99
2022-08-25T11:45:03.637Z,40.85
2022-08-25T11:48:02.173Z,41.54
2022-08-25T11:50:35.082Z,42.50
2022-08-25T11:53:23.670Z,40.80
2022-08-25T11:55:58.775Z,41.74
2022-08-25T11:58:47.604Z,40.80
2022-08-25T12:01:57.358Z,40.70
2022-08-25T12:04:44.250Z,41.39
2022-08-25T12:07:28.869Z,40.74
2022-08-25T12:10:19.472Z,40.80
2022-08-25T12:13:04.818Z,39.81
2022-08-25T12:16:03.180Z,39.19
2022-08-25T12:18:45.646Z,40.09
2022-08-25T12:21:17.660Z,39.31
2022-08-25T12:24:05.137Z,38.68
2022-08-25T12:26:43.015Z,38.74
2022-08-25T12:29:21.541Z,39.45
2022-08-25T12:32:20.131Z,38.83
2022-08-25T12:35:17.274Z,39.49
2022-08-25T12:37:56.736Z,38.12
2022-08-25T12:40:29.096Z,38.72
2022-08-25T12:43:26.331Z,38.39
2022-08-25T12:45:56.443Z,38.42
2022-08-25T12:48:56.988Z,38.07
2022-08-25T12:51:27.968Z,38.60
2022-08-25T12:54:01.997Z,39.22
2022-08-25T12:56:39.448Z,39.13
2022-08-25T12:59:18.439Z,38.70
2022-08-25T13:02:14.014Z,39.09
2022-08-25T13:05:02.709Z,37.73
2022-08-25T13:07:47.580Z,38.07
2022-08-25T13:10:44.789Z,36.69
2022-08-25T13:13:20.927Z,37.72
2022-08-25T13:16:00.284Z,37.72
2022-08-25T13:18:30.845Z,37.66
2022-08-25T13:21:09.727Z,37.35
2022-08-25T13:23:42.068Z,37.09
2022-08-25T13:26:13.836Z,37.35
2022-08-25T13:28:50.394Z,36.89
2022-08-25T13:31:22.146Z,36.45
2022-08-25T13:33:55.661Z,36.27
2022-08-25T13:36:47.482Z,35.87
2022-08-25T13:39:45.679Z,36.14
2022-08-25T13:42:15.321Z,36.23
2022-08-25T13:44:52.456Z,36.25
2022-08-25T13:47:45.370Z,34.73
2022-08-25T13:50:20.294Z,35.02
2022-08-25T13:52:52.125Z,35.80
2022-08-25T13:55:27.408Z,36.06
2022-08-25T13:57:55.751Z,36.20
2022-08-25T14:00:33.122Z,36.19
2022-08-25T14:03:08.725Z,35.48
2022-08-25T14:05:45.583Z,35.77
2022-08-25T14:11:14.923Z,36.02
2022-08-25T14:13:46.049Z,36.34
2022-08-25T14:16:20.813Z,35.89
2022-08-25T14:18:53.292Z,35.09
2022-08-25T14:21:24.813Z,35.43
2022-08-25T14:23:54.312Z,35.36
2022-08-25T14:26:23.999Z,34.90
2022-08-25T14:28:54.670Z,35.30
2022-08-25T14:31:28.560Z,34.95
2022-08-25T14:34:00.618Z,34.93
2022-08-25T14:36:32.458Z,35.57
2022-08-25T14:39:00.587Z,34.84
2022-08-25T14:41:31.066Z,35.98
2022-08-25T14:43:59.127Z,35.05
2022-08-25T14:46:33.875Z,35.62
2022-08-25T14:49:05.776Z,35.87
2022-08-25T14:51:36.205Z,35.15
2022-08-25T14:54:07.862Z,34.57
2022-08-25T14:56:38.363Z,35.13
2022-08-25T14:59:11.184Z,35.20
2022-08-25T15:01:39.195Z,34.95
2022-08-25T15:04:10.628Z,35.91
2022-08-25T15:06:41.915Z,34.93
2022-08-25T15:09:13.628Z,34.02
2022-08-25T15:11:45.082Z,33.69
2022-08-25T15:14:15.640Z,34.49
2022-08-25T15:16:46.428Z,34.72
2022-08-25T15:19:17.306Z,34.60
2022-08-25T15:21:46.847Z,34.48
2022-08-25T15:24:17.220Z,34.08
2022-08-25T15:29:25.438Z,33.90
2022-08-25T15:31:53.677Z,33.66
2022-08-25T15:34:21.740Z,33.11
2022-08-25T15:36:50.316Z,33.13
2022-08-25T15:39:19.589Z,32.52
2022-08-25T15:41:52.170Z,32.96
2022-08-25T15:44:20.440Z,32.40
2022-08-25T15:46:50.166Z,32.72
2022-08-25T15:49:20.934Z,32.81
2022-08-25T15:51:52.423Z,32.71
2022-08-25T15:54:20.745Z,33.32
2022-08-25T15:56:50.336Z,32.41
2022-08-25T15:59:21.710Z,32.87
2022-08-25T16:01:53.438Z,33.55
2022-08-25T16:04:22.507Z,33.71
2022-08-25T16:06:51.921Z,33.13
2022-08-25T16:09:22.871Z,33.62
2022-08-25T16:11:55.707Z,33.29
2022-08-25T16:14:26.106Z,33.75
2022-08-25T16:16:58.218Z,33.76
2022-08-25T16:19:28.505Z,33.81
2022-08-25T16:21:56.792Z,33.71
2022-08-25T16:24:25.271Z,32.99
2022-08-25T16:26:55.806Z,33.69
2022-08-25T16:29:24.093Z,32.54
2022-08-25T16:31:53.234Z,32.90
2022-08-25T16:34:24.598Z,34.17
2022-08-25T16:36:53.251Z,34.46
2022-08-25T16:39:21.263Z,35.54
2022-08-25T16:41:50.179Z,36.03
2022-08-25T16:44:22.708Z,36.23
2022-08-25T16:46:54.369Z,36.53
2022-08-25T16:49:24.169Z,37.12
2022-08-25T16:51:57.081Z,37.50
2022-08-25T16:54:43.989Z,37.72
2022-08-25T16:57:12.215Z,37.73
2022-08-25T16:59:42.580Z,38.19
2022-08-25T17:02:12.210Z,38.46
2022-08-25T17:04:40.822Z,38.26
2022-08-25T17:07:09.047Z,38.30
2022-08-25T17:09:37.212Z,38.44
2022-08-25T17:12:05.616Z,38.30
2022-08-25T17:14:33.674Z,39.04
2022-08-25T17:17:04.070Z,39.58
2022-08-25T17:19:35.339Z,40.05
2022-08-25T17:22:03.364Z,40.41
2022-08-25T17:24:33.754Z,40.99
2022-08-25T17:27:02.806Z,41.12
2022-08-25T17:29:30.853Z,41.28
2022-08-25T17:31:59.355Z,41.33
2022-08-25T17:34:29.153Z,41.34
2022-08-25T17:36:59.687Z,41.63
2022-08-25T17:39:28.594Z,42.02
2022-08-25T17:41:56.622Z,41.77
2022-08-25T17:44:24.662Z,42.17
2022-08-25T17:46:52.730Z,41.76
2022-08-25T17:49:20.746Z,41.50
2022-08-25T17:51:50.204Z,41.66
2022-08-25T17:54:18.851Z,42.01
2022-08-25T17:56:46.809Z,41.75
2022-08-25T17:59:16.416Z,42.08
2022-08-25T18:01:45.673Z,42.28
2022-08-25T18:04:15.633Z,42.44
2022-08-25T18:06:46.820Z,42.78
2022-08-25T18:09:17.397Z,42.83
2022-08-25T18:11:46.090Z,42.48
2022-08-25T18:14:16.701Z,42.52
2022-08-25T18:16:44.804Z,42.81
2022-08-25T18:19:14.379Z,42.62
2022-08-25T18:21:43.614Z,43.00
2022-08-25T18:24:13.473Z,43.75
2022-08-25T18:26:43.076Z,42.13
2022-08-25T18:29:13.274Z,43.66
2022-08-25T18:31:42.439Z,42.73
2022-08-25T18:34:11.631Z,43.91
2022-08-25T18:36:41.781Z,43.88
2022-08-25T18:39:30.501Z,43.79
2022-08-25T18:42:03.870Z,43.84
2022-08-25T18:44:33.310Z,43.71
2022-08-25T18:47:06.495Z,43.96
2022-08-25T18:49:37.137Z,43.80
2022-08-25T18:52:07.458Z,44.31
2022-08-25T18:54:36.002Z,44.35
2022-08-25T18:57:08.160Z,44.11
2022-08-25T18:59:37.163Z,44.50
2022-08-25T19:02:05.528Z,44.66
2022-08-25T19:04:33.685Z,44.75
2022-08-25T19:07:02.024Z,45.00
2022-08-25T19:09:31.858Z,45.15
2022-08-25T19:11:59.858Z,45.26
2022-08-25T19:14:29.836Z,44.93
2022-08-25T19:16:59.406Z,44.85
2022-08-25T19:19:29.149Z,45.48
2022-08-25T19:21:58.045Z,45.20
2022-08-25T19:24:28.242Z,45.08
2022-08-25T19:26:56.926Z,45.20
2022-08-25T19:29:26.232Z,44.93
2022-08-25T19:31:56.747Z,45.44
2022-08-25T19:34:38.168Z,45.88
2022-08-25T19:37:07.308Z,45.99
2022-08-25T19:39:39.270Z,45.73
2022-08-25T19:42:08.550Z,45.81
2022-08-25T19:44:56.791Z,46.31
2022-08-25T19:47:26.203Z,46.83
2022-08-25T19:49:55.334Z,46.56
2022-08-25T19:52:26.526Z,46.81
2022-08-25T19:54:54.826Z,46.74
2022-08-25T19:57:28.650Z,46.79
2022-08-25T20:00:15.144Z,46.53
2022-08-25T20:02:45.855Z,46.44
2022-08-25T20:05:15.473Z,46.52
2022-08-25T20:07:52.035Z,46.62
2022-08-25T20:10:20.876Z,46.69
2022-08-25T20:12:49.043Z,46.83
2022-08-25T20:15:17.616Z,47.88
2022-08-25T20:17:47.608Z,48.68
2022-08-25T20:20:18.804Z,48.87
2022-08-25T20:22:47.820Z,50.30
2022-08-25T20:25:17.613Z,50.42
2022-08-25T20:27:50.170Z,49.87
2022-08-25T20:30:22.916Z,49.53
2022-08-25T20:32:54.485Z,49.01
2022-08-25T20:35:26.586Z,49.02
2022-08-25T20:37:56.242Z,49.49
2022-08-25T20:40:26.253Z,49.03
2022-08-25T20:42:54.806Z,49.13
2022-08-25T20:45:23.340Z,49.40
2022-08-25T20:47:53.047Z,49.24
2022-08-25T20:50:22.846Z,49.12
2022-08-25T20:52:52.155Z,49.61
2022-08-25T20:55:20.556Z,49.38
2022-08-25T20:57:49.520Z,49.68
2022-08-25T21:00:19.424Z,50.05
2022-08-25T21:02:54.131Z,49.74
2022-08-25T21:05:22.600Z,49.62
2022-08-25T21:07:50.594Z,49.96
2022-08-25T21:10:19.029Z,50.05
2022-08-25T21:12:49.105Z,49.86
2022-08-25T21:15:21.455Z,50.28
2022-08-25T21:17:54.399Z,50.29
2022-08-25T21:20:24.748Z,50.24
2022-08-25T21:22:53.435Z,50.27
2022-08-25T21:25:21.830Z,50.52
2022-08-25T21:27:49.879Z,50.51
2022-08-25T21:30:18.822Z,50.35
2022-08-25T21:32:53.336Z,50.55
2022-08-25T21:35:23.733Z,50.42
2022-08-25T21:37:52.993Z,50.62
2022-08-25T21:40:22.771Z,50.78
2022-08-25T21:42:51.091Z,50.53
2022-08-25T21:45:21.041Z,51.02
2022-08-25T21:47:50.032Z,51.09
2022-08-25T21:50:20.020Z,51.09
2022-08-25T21:52:54.273Z,51.18
2022-08-25T21:55:23.374Z,51.37
2022-08-25T21:57:51.528Z,51.48
2022-08-25T22:00:21.418Z,51.61
2022-08-25T22:02:49.798Z,51.68
2022-08-25T22:05:18.039Z,51.78
2022-08-25T22:07:46.155Z,51.97
2022-08-25T22:10:16.750Z,52.26
2022-08-25T22:12:46.162Z,52.08
2022-08-25T22:15:15.616Z,52.20
2022-08-25T22:17:43.660Z,52.37
2022-08-25T22:20:12.803Z,52.45
2022-08-25T22:22:40.866Z,52.55
2022-08-25T22:25:09.388Z,51.77
2022-08-25T22:27:38.918Z,51.44
2022-08-25T22:30:08.928Z,51.60
2022-08-25T22:32:36.909Z,51.65
2022-08-25T22:35:05.764Z,51.73
2022-08-25T22:37:34.124Z,51.41
2022-08-25T22:40:05.261Z,52.00
2022-08-25T22:42:33.333Z,51.97
2022-08-25T22:45:02.726Z,52.06
2022-08-25T22:47:31.234Z,51.89
2022-08-25T22:49:59.477Z,52.36
2022-08-25T22:52:33.317Z,52.51
2022-08-25T22:55:02.818Z,52.86
2022-08-25T22:57:30.911Z,52.56
2022-08-25T22:59:59.292Z,51.96
2022-08-25T23:02:30.292Z,51.85
2022-08-25T23:05:00.918Z,51.98
2022-08-25T23:07:29.875Z,51.85
2022-08-25T23:09:59.730Z,52.37
2022-08-25T23:12:27.746Z,51.91
2022-08-25T23:14:55.852Z,52.12
2022-08-25T23:17:23.811Z,52.23
2022-08-25T23:19:53.145Z,52.51
2022-08-25T23:22:20.175Z,52.54
2022-08-25T23:24:52.772Z,52.53
2022-08-25T23:27:22.651Z,52.38
2022-08-25T23:29:51.217Z,52.02
2022-08-25T23:32:19.624Z,52.40
2022-08-25T23:34:48.037Z,51.48
2022-08-25T23:37:18.514Z,51.64
2022-08-25T23:39:49.823Z,51.94
2022-08-25T23:42:19.511Z,51.67
2022-08-25T23:44:48.083Z,51.58
2022-08-25T23:47:16.152Z,52.29
2022-08-25T23:49:44.229Z,52.62
2022-08-25T23:52:12.317Z,52.68
2022-08-25T23:54:41.637Z,53.21
2022-08-25T23:57:09.584Z,53.02
2022-08-25T23:59:38.338Z,53.72
